Time;durP1;ratioP1;P1;durP2;ratioP2;P2;SDS_P1;SDS_P2;PMS_P1;PMS_P2;Temp;Humidity;BMP_temperature;BMP_pressure;BME280_temperature;BME280_humidity;BME280_pressure;Samples;Min_cycle;Max_cycle;Signal;HPM_P1;HPM_P2
2022/12/26 00:01:44;;;;;;;;;;;;;;;14.15;nan;100967.13;5041696;28;19918;-34
2022/12/26 00:04:09;;;;;;;;;;;;;;;14.15;nan;100961.72;5049108;28;20030;-34
2022/12/26 00:06:35;;;;;;;;;;;;;;;14.20;nan;100969.03;5041812;28;19924;-35
2022/12/26 00:09:01;;;;;;;;;;;;;;;14.23;nan;100968.50;5037708;28;20477;-35
2022/12/26 00:11:27;;;;;;;;;;;;;;;14.25;nan;100955.56;5046974;28;19917;-37
2022/12/26 00:13:57;;;;;;;;;;;;;;;14.31;nan;100942.91;5043619;28;20366;-35
2022/12/26 00:16:22;;;;;;;;;;;;;;;14.33;nan;100948.81;5047140;28;19917;-35
2022/12/26 00:18:48;;;;;;;;;;;;;;;14.34;nan;100936.97;5044747;28;19936;-35
2022/12/26 00:21:14;;;;;;;;;;;;;;;14.37;nan;100934.56;5044073;28;19917;-34
2022/12/26 00:23:40;;;;;;;;;;;;;;;14.42;nan;100931.06;5045880;28;19917;-35
2022/12/26 00:26:10;;;;;;;;;;;;;;;14.40;nan;100923.25;5046682;28;19924;-35
2022/12/26 00:28:36;;;;;;;;;;;;;;;14.39;nan;100921.63;5045915;28;19924;-36
2022/12/26 00:31:05;;;;;;;;;;;;;;;14.40;nan;100925.13;5047082;28;19926;-35
2022/12/26 00:33:32;;;;;;;;;;;;;;;14.41;nan;100924.06;5045805;28;19917;-38
2022/12/26 00:36:06;;;;;;;;;;;;;;;14.43;nan;100919.19;5047460;28;20054;-36
2022/12/26 00:38:33;;;;;;;;;;;;;;;14.45;nan;100912.47;5045444;28;20011;-36
2022/12/26 00:40:58;;;;;;;;;;;;;;;14.46;nan;100900.63;5045554;28;19930;-35
2022/12/26 00:43:23;;;;;;;;;;;;;;;14.49;nan;100902.78;5044650;28;19917;-34
2022/12/26 00:45:49;;;;;;;;;;;;;;;14.51;nan;100889.03;5048837;28;20466;-38
2022/12/26 00:48:14;;;;;;;;;;;;;;;14.57;nan;100893.34;5047322;28;19939;-35
2022/12/26 00:50:39;;;;;;;;;;;;;;;14.60;nan;100894.69;5046861;28;19962;-36
2022/12/26 00:53:05;;;;;;;;;;;;;;;14.58;nan;100894.16;5045101;28;19920;-36
2022/12/26 00:55:31;;;;;;;;;;;;;;;14.60;nan;100886.59;5048495;28;19972;-37
2022/12/26 00:57:56;;;;;;;;;;;;;;;14.63;nan;100886.88;5044078;28;19920;-38
2022/12/26 01:00:21;;;;;;;;;;;;;;;14.68;nan;100892.25;5049314;28;20527;-35
2022/12/26 01:02:47;;;;;;;;;;;;;;;14.69;nan;100885.75;5047815;28;19920;-35
2022/12/26 01:05:12;;;;;;;;;;;;;;;14.66;nan;100883.63;5047066;28;19921;-35
2022/12/26 01:07:38;;;;;;;;;;;;;;;14.68;nan;100881.47;5040989;28;19923;-35
2022/12/26 01:10:04;;;;;;;;;;;;;;;14.70;nan;100876.59;5048547;28;19917;-35
2022/12/26 01:12:30;;;;;;;;;;;;;;;14.72;nan;100874.47;5043647;28;19939;-37
2022/12/26 01:14:56;;;;;;;;;;;;;;;14.77;nan;100877.13;5047180;28;20002;-37
2022/12/26 01:17:21;;;;;;;;;;;;;;;14.82;nan;100868.22;5048376;28;19994;-35
2022/12/26 01:19:47;;;;;;;;;;;;;;;14.83;nan;100853.66;5044687;28;19927;-36
2022/12/26 01:22:12;;;;;;;;;;;;;;;14.84;nan;100849.06;5043244;28;20015;-35
2022/12/26 01:24:37;;;;;;;;;;;;;;;14.84;nan;100860.66;5048118;28;19925;-38
2022/12/26 01:27:03;;;;;;;;;;;;;;;14.89;nan;100857.13;5046009;28;19916;-35
2022/12/26 01:29:28;;;;;;;;;;;;;;;14.92;nan;100840.44;5043739;28;19970;-37
2022/12/26 01:31:53;;;;;;;;;;;;;;;14.91;nan;100842.31;5044138;28;19936;-35
2022/12/26 01:34:19;;;;;;;;;;;;;;;14.97;nan;100848.50;5047949;28;19917;-37
2022/12/26 01:36:44;;;;;;;;;;;;;;;14.99;nan;100836.34;5044800;28;19917;-35
2022/12/26 01:39:10;;;;;;;;;;;;;;;14.99;nan;100849.03;5049933;28;19921;-36
2022/12/26 01:41:35;;;;;;;;;;;;;;;14.98;nan;100831.22;5045017;28;19952;-35
2022/12/26 01:44:03;;;;;;;;;;;;;;;14.97;nan;100833.13;5048741;28;19928;-37
2022/12/26 01:46:31;;;;;;;;;;;;;;;14.99;nan;100838.22;5045474;28;20371;-36
2022/12/26 01:48:59;;;;;;;;;;;;;;;15.02;nan;100832.28;5047564;28;20378;-37
2022/12/26 01:51:27;;;;;;;;;;;;;;;15.03;nan;100834.69;5043980;28;19917;-35
2022/12/26 01:53:54;;;;;;;;;;;;;;;15.06;nan;100830.63;5048201;28;20266;-36
2022/12/26 01:56:22;;;;;;;;;;;;;;;15.04;nan;100822.03;5047865;28;20369;-35
2022/12/26 01:59:08;;;;;;;;;;;;;;;15.06;nan;100825.25;5040360;28;19925;-35
2022/12/26 02:01:34;;;;;;;;;;;;;;;15.09;nan;100820.13;5040681;28;19928;-36
2022/12/26 02:06:45;;;;;;;;;;;;;;;15.10;nan;100816.34;5044983;28;19990;-36
2022/12/26 02:09:11;;;;;;;;;;;;;;;15.11;nan;100826.06;5042344;28;20413;-36
2022/12/26 02:11:42;;;;;;;;;;;;;;;15.11;nan;100812.56;5044437;28;20004;-36
2022/12/26 02:14:07;;;;;;;;;;;;;;;15.14;nan;100824.69;5046993;28;20058;-34
2022/12/26 02:16:34;;;;;;;;;;;;;;;15.12;nan;100818.75;5045010;28;20016;-35
2022/12/26 02:18:59;;;;;;;;;;;;;;;15.15;nan;100812.81;5046139;28;20070;-32
2022/12/26 02:21:30;;;;;;;;;;;;;;;15.17;nan;100807.13;5043133;28;20361;-32
2022/12/26 02:24:14;;;;;;;;;;;;;;;15.17;nan;100813.34;5042495;28;19968;-32
2022/12/26 02:26:58;;;;;;;;;;;;;;;15.15;nan;100812.81;5040237;28;20393;-32
2022/12/26 02:29:36;;;;;;;;;;;;;;;15.13;nan;100814.97;5041351;28;19917;-32
2022/12/26 02:32:08;;;;;;;;;;;;;;;15.12;nan;100807.97;5051036;28;19916;-32
2022/12/26 02:34:39;;;;;;;;;;;;;;;15.18;nan;100816.84;5046644;28;19925;-32
2022/12/26 02:37:15;;;;;;;;;;;;;;;15.19;nan;100813.06;5039833;28;19924;-32
2022/12/26 02:39:56;;;;;;;;;;;;;;;15.17;nan;100810.63;5044507;28;20003;-32
2022/12/26 02:42:34;;;;;;;;;;;;;;;15.17;nan;100804.44;5044125;28;19917;-33
2022/12/26 02:47:52;;;;;;;;;;;;;;;15.22;nan;100794.41;5043504;28;19928;-32
2022/12/26 03:13:12;;;;;;;;;;;;;;;15.33;nan;100770.88;5042122;28;19931;-32
2022/12/26 03:18:35;;;;;;;;;;;;;;;15.33;nan;100766.28;5030925;28;19917;-32
2022/12/26 03:21:00;;;;;;;;;;;;;;;15.34;nan;100773.31;5044464;28;20436;-32
2022/12/26 03:23:27;;;;;;;;;;;;;;;15.36;nan;100779.22;5036653;28;19920;-32
2022/12/26 03:28:41;;;;;;;;;;;;;;;15.36;nan;100771.13;5041818;28;19971;-33
2022/12/26 03:31:11;;;;;;;;;;;;;;;15.40;nan;100779.47;5040969;28;20027;-32
2022/12/26 03:36:41;;;;;;;;;;;;;;;15.37;nan;100786.25;5035926;28;20305;-32
2022/12/26 04:19:22;;;;;;;;;;;;;;;15.42;nan;100788.91;5041938;28;20359;-32
2022/12/26 04:19:23;;;;;;;;;;;;;;;16.03;nan;100812.03;5047097;28;19923;-32
2022/12/26 04:44:26;;;;;;;;;;;;;;;16.04;nan;100802.03;5044080;28;19990;-32
2022/12/26 04:46:52;;;;;;;;;;;;;;;16.08;nan;100803.06;5040470;28;20551;-32
2022/12/26 04:52:04;;;;;;;;;;;;;;;16.11;nan;100802.50;5039885;28;19971;-32
2022/12/26 04:54:30;;;;;;;;;;;;;;;16.12;nan;100802.22;5043341;28;19921;-32
2022/12/26 04:56:55;;;;;;;;;;;;;;;16.13;nan;100803.00;5049683;28;19989;-33
2022/12/26 04:59:21;;;;;;;;;;;;;;;16.14;nan;100808.13;5048547;28;19924;-32
2022/12/26 05:10:16;;;;;;;;;;;;;;;16.14;nan;100816.25;5041106;28;19927;-32
2022/12/26 05:12:41;;;;;;;;;;;;;;;16.14;nan;100807.34;5038199;28;19932;-32
2022/12/26 05:15:07;;;;;;;;;;;;;;;16.15;nan;100804.34;5043168;28;19924;-33
2022/12/26 05:28:41;;;;;;;;;;;;;;;16.14;nan;100823.53;5044359;28;19962;-33
2022/12/26 05:31:10;;;;;;;;;;;;;;;16.12;nan;100820.31;5044669;28;20010;-32
2022/12/26 05:36:21;;;;;;;;;;;;;;;16.14;nan;100818.13;5041504;28;19923;-33
2022/12/26 05:38:47;;;;;;;;;;;;;;;16.15;nan;100822.47;5045578;28;19917;-32
2022/12/26 05:41:13;;;;;;;;;;;;;;;16.19;nan;100815.41;5045312;28;20053;-33
2022/12/26 05:43:38;;;;;;;;;;;;;;;16.21;nan;100815.94;5040444;28;19924;-33
2022/12/26 05:46:04;;;;;;;;;;;;;;;16.22;nan;100817.53;5042122;28;20020;-33
2022/12/26 05:48:29;;;;;;;;;;;;;;;16.24;nan;100831.59;5046416;28;20007;-33
2022/12/26 05:51:01;;;;;;;;;;;;;;;16.25;nan;100835.91;5047333;28;20046;-32
2022/12/26 05:53:27;;;;;;;;;;;;;;;16.28;nan;100821.81;5040526;28;19921;-33
2022/12/26 05:55:53;;;;;;;;;;;;;;;16.29;nan;100826.13;5042090;28;19947;-33
2022/12/26 05:58:18;;;;;;;;;;;;;;;16.35;nan;100837.72;5041302;28;20381;-32
2022/12/26 06:00:44;;;;;;;;;;;;;;;16.33;nan;100827.16;5045688;28;20025;-32
2022/12/26 06:03:09;;;;;;;;;;;;;;;16.34;nan;100826.09;5047616;28;19920;-33
2022/12/26 06:05:34;;;;;;;;;;;;;;;16.35;nan;100833.13;5040210;28;19966;-33
2022/12/26 06:08:00;;;;;;;;;;;;;;;16.35;nan;100819.59;5041736;28;20058;-33
2022/12/26 06:10:28;;;;;;;;;;;;;;;16.31;nan;100824.75;5045577;28;19963;-33
2022/12/26 06:12:53;;;;;;;;;;;;;;;16.31;nan;100829.34;5044465;28;20406;-33
2022/12/26 06:15:19;;;;;;;;;;;;;;;16.32;nan;100825.56;5043632;28;19917;-32
2022/12/26 06:17:44;;;;;;;;;;;;;;;16.31;nan;100829.34;5047194;28;20050;-33
2022/12/26 06:20:09;;;;;;;;;;;;;;;16.37;nan;100822.03;5046083;28;19921;-33
2022/12/26 06:22:35;;;;;;;;;;;;;;;16.34;nan;100826.09;5042917;28;19917;-32
2022/12/26 06:25:00;;;;;;;;;;;;;;;16.37;nan;100833.63;5039375;28;19928;-33
2022/12/26 06:27:26;;;;;;;;;;;;;;;16.36;nan;100833.94;5046647;28;19924;-32
2022/12/26 06:29:52;;;;;;;;;;;;;;;16.37;nan;100849.88;5042038;28;20321;-32
2022/12/26 06:32:17;;;;;;;;;;;;;;;16.34;nan;100853.13;5041532;28;19920;-33
2022/12/26 06:34:42;;;;;;;;;;;;;;;16.35;nan;100860.16;5046334;28;20371;-32
2022/12/26 06:37:08;;;;;;;;;;;;;;;16.35;nan;100860.16;5049836;28;20391;-32
2022/12/26 06:39:33;;;;;;;;;;;;;;;16.36;nan;100872.59;5040838;28;20397;-33
2022/12/26 06:41:58;;;;;;;;;;;;;;;16.40;nan;100860.09;5044707;28;20294;-33
2022/12/26 06:44:24;;;;;;;;;;;;;;;16.38;nan;100856.88;5044467;28;20023;-32
2022/12/26 06:46:49;;;;;;;;;;;;;;;16.39;nan;100858.50;5044677;28;19916;-33
2022/12/26 06:49:14;;;;;;;;;;;;;;;16.37;nan;100854.47;5038163;28;19952;-33
2022/12/26 06:51:40;;;;;;;;;;;;;;;16.37;nan;100855.28;5041818;28;19924;-33
2022/12/26 06:54:05;;;;;;;;;;;;;;;16.35;nan;100846.63;5042647;28;19925;-33
2022/12/26 06:56:31;;;;;;;;;;;;;;;16.32;nan;100841.78;5036938;28;19917;-33
2022/12/26 06:59:01;;;;;;;;;;;;;;;16.36;nan;100840.13;5045210;28;19924;-33
2022/12/26 07:01:27;;;;;;;;;;;;;;;16.32;nan;100849.88;5040850;28;19999;-33
2022/12/26 07:03:53;;;;;;;;;;;;;;;16.35;nan;100852.06;5044765;28;20298;-33
2022/12/26 07:06:22;;;;;;;;;;;;;;;16.38;nan;100851.47;5044763;28;19916;-32
2022/12/26 07:08:47;;;;;;;;;;;;;;;16.33;nan;100855.00;5042643;28;19978;-33
2022/12/26 07:11:17;;;;;;;;;;;;;;;16.41;nan;100867.13;5039978;28;20349;-32
2022/12/26 07:13:42;;;;;;;;;;;;;;;16.45;nan;100868.16;5043071;28;19925;-33
2022/12/26 07:16:08;;;;;;;;;;;;;;;16.39;nan;100879.31;5044458;28;20450;-33
2022/12/26 07:18:33;;;;;;;;;;;;;;;16.42;nan;100884.16;5049430;28;19916;-33
2022/12/26 07:20:59;;;;;;;;;;;;;;;16.40;nan;100892.56;5048388;28;19978;-32
2022/12/26 07:23:24;;;;;;;;;;;;;;;16.39;nan;100893.66;5040376;28;20030;-33
2022/12/26 07:25:50;;;;;;;;;;;;;;;16.39;nan;100901.75;5047394;28;19968;-33
2022/12/26 07:28:15;;;;;;;;;;;;;;;16.37;nan;100909.34;5048592;28;20297;-33
2022/12/26 07:30:47;;;;;;;;;;;;;;;16.38;nan;100915.56;5045824;28;20277;-33
2022/12/26 07:33:13;;;;;;;;;;;;;;;16.38;nan;100913.66;5049111;28;19932;-33
2022/12/26 07:35:38;;;;;;;;;;;;;;;16.38;nan;100916.38;5048714;28;19916;-33
2022/12/26 07:38:03;;;;;;;;;;;;;;;16.39;nan;100911.78;5045519;28;20050;-33
2022/12/26 07:40:29;;;;;;;;;;;;;;;16.31;nan;100923.97;5046891;28;19924;-33
2022/12/26 07:42:54;;;;;;;;;;;;;;;16.30;nan;100922.38;5044846;28;20012;-33
2022/12/26 07:45:19;;;;;;;;;;;;;;;16.29;nan;100928.88;5046438;28;19952;-33
2022/12/26 07:47:45;;;;;;;;;;;;;;;16.29;nan;100918.06;5040304;28;19967;-33
2022/12/26 07:50:10;;;;;;;;;;;;;;;16.31;nan;100929.38;5048824;28;19921;-33
2022/12/26 07:52:35;;;;;;;;;;;;;;;16.33;nan;100924.50;5046200;28;19917;-33
2022/12/26 07:55:01;;;;;;;;;;;;;;;16.35;nan;100932.34;5050480;28;19917;-33
2022/12/26 07:57:26;;;;;;;;;;;;;;;16.35;nan;100932.34;5045595;28;19948;-32
2022/12/26 07:59:51;;;;;;;;;;;;;;;16.30;nan;100941.28;5045995;28;19974;-32
2022/12/26 08:02:17;;;;;;;;;;;;;;;16.28;nan;100935.38;5036876;28;19921;-32
2022/12/26 08:04:42;;;;;;;;;;;;;;;16.26;nan;100942.94;5049870;28;19966;-33
2022/12/26 08:07:08;;;;;;;;;;;;;;;16.28;nan;100938.06;5046723;28;19943;-33
2022/12/26 08:09:34;;;;;;;;;;;;;;;16.29;nan;100945.09;5043302;28;19979;-33
2022/12/26 08:11:59;;;;;;;;;;;;;;;16.30;nan;100955.63;5044778;28;20370;-32
2022/12/26 08:14:24;;;;;;;;;;;;;;;16.38;nan;100946.13;5048865;28;20348;-33
2022/12/26 08:16:49;;;;;;;;;;;;;;;16.37;nan;100946.41;5041273;28;20534;-33
2022/12/26 08:19:15;;;;;;;;;;;;;;;16.38;nan;100950.72;5037187;22;19933;-35
2022/12/26 08:21:40;;;;;;;;;;;;;;;16.42;nan;100959.88;5024853;28;19921;-34
2022/12/26 08:24:05;;;;;;;;;;;;;;;16.39;nan;100960.44;5025067;28;19929;-35
2022/12/26 08:26:31;;;;;;;;;;;;;;;16.37;nan;100949.91;5023200;28;19922;-35
2022/12/26 08:28:56;;;;;;;;;;;;;;;16.44;nan;100953.09;5016024;28;19926;-35
2022/12/26 08:31:22;;;;;;;;;;;;;;;16.40;nan;100949.34;5018708;28;19930;-34
2022/12/26 08:33:47;;;;;;;;;;;;;;;16.40;nan;100956.66;5018101;28;20290;-35
2022/12/26 08:36:15;;;;;;;;;;;;;;;16.43;nan;100956.09;5017570;28;19972;-35
2022/12/26 08:38:41;;;;;;;;;;;;;;;16.41;nan;100959.06;5019074;28;19917;-35
2022/12/26 08:41:06;;;;;;;;;;;;;;;16.44;nan;100955.00;5017475;28;19975;-35
2022/12/26 08:43:32;;;;;;;;;;;;;;;16.42;nan;100952.56;5013405;28;19967;-35
2022/12/26 08:46:02;;;;;;;;;;;;;;;16.46;nan;100961.72;5016560;28;20019;-35
2022/12/26 08:48:28;;;;;;;;;;;;;;;16.49;nan;100955.75;5017318;28;19918;-35
2022/12/26 08:51:13;;;;;;;;;;;;;;;16.51;nan;100941.94;5016417;28;20342;-35
2022/12/26 08:53:39;;;;;;;;;;;;;;;16.53;nan;100946.00;5014937;28;19918;-35
2022/12/26 08:56:05;;;;;;;;;;;;;;;16.51;nan;100955.47;5017844;28;19917;-35
2022/12/26 08:58:31;;;;;;;;;;;;;;;16.46;nan;100953.63;5016005;28;20373;-34
2022/12/26 09:01:07;;;;;;;;;;;;;;;16.50;nan;100957.38;5018452;28;19975;-34
2022/12/26 09:03:32;;;;;;;;;;;;;;;16.51;nan;100963.59;5017644;28;20299;-35
2022/12/26 09:05:59;;;;;;;;;;;;;;;16.55;nan;100975.47;5018531;28;19925;-35
2022/12/26 09:08:24;;;;;;;;;;;;;;;16.56;nan;100967.06;5016335;28;20009;-35
2022/12/26 09:10:50;;;;;;;;;;;;;;;16.59;nan;100969.22;5018307;28;20441;-35
2022/12/26 09:13:15;;;;;;;;;;;;;;;16.61;nan;100972.44;5022593;28;20401;-35
2022/12/26 09:15:41;;;;;;;;;;;;;;;16.58;nan;100983.81;5020227;28;20192;-35
2022/12/26 09:18:06;;;;;;;;;;;;;;;16.52;nan;100986.88;5014507;28;19936;-34
2022/12/26 09:20:32;;;;;;;;;;;;;;;16.54;nan;100993.59;5015908;28;19925;-35
2022/12/26 09:22:57;;;;;;;;;;;;;;;16.50;nan;100972.78;5017323;28;19957;-34
2022/12/26 09:25:23;;;;;;;;;;;;;;;16.54;nan;100990.91;5016962;28;20004;-35
2022/12/26 09:27:49;;;;;;;;;;;;;;;16.54;nan;100974.66;5011815;28;20048;-34
2022/12/26 09:30:15;;;;;;;;;;;;;;;16.58;nan;100974.91;5016433;28;19925;-35
2022/12/26 09:32:40;;;;;;;;;;;;;;;16.61;nan;100977.84;5019577;28;19932;-35
2022/12/26 09:35:06;;;;;;;;;;;;;;;16.65;nan;100974.56;5015298;28;20455;-35
2022/12/26 09:37:32;;;;;;;;;;;;;;;16.62;nan;100987.56;5021644;28;19926;-35
2022/12/26 09:39:57;;;;;;;;;;;;;;;16.65;nan;100991.59;5014327;28;19943;-35
2022/12/26 09:42:25;;;;;;;;;;;;;;;16.63;nan;100988.38;5012220;28;19983;-35
2022/12/26 09:45:00;;;;;;;;;;;;;;;16.66;nan;100992.41;5017462;28;20371;-35
2022/12/26 09:47:26;;;;;;;;;;;;;;;16.63;nan;100994.59;5014023;28;19949;-34
2022/12/26 09:49:56;;;;;;;;;;;;;;;16.58;nan;100991.94;5016783;28;19925;-35
2022/12/26 09:52:26;;;;;;;;;;;;;;;16.65;nan;100991.59;5013092;28;19925;-35
2022/12/26 09:54:53;;;;;;;;;;;;;;;16.70;nan;100983.50;5014023;28;19995;-36
2022/12/26 09:57:22;;;;;;;;;;;;;;;16.70;nan;100982.69;5016198;28;19922;-35
2022/12/26 09:59:51;;;;;;;;;;;;;;;16.70;nan;100982.69;5018618;28;19964;-35
2022/12/26 10:02:20;;;;;;;;;;;;;;;16.71;nan;100982.41;5017749;28;20302;-35
2022/12/26 10:04:46;;;;;;;;;;;;;;;16.69;nan;100975.66;5015073;28;19929;-36
2022/12/26 10:07:12;;;;;;;;;;;;;;;16.67;nan;100970.53;5014288;28;19968;-35
2022/12/26 10:09:43;;;;;;;;;;;;;;;16.66;nan;100981.59;5018995;28;19925;-35
2022/12/26 10:12:24;;;;;;;;;;;;;;;16.75;nan;100975.34;5015786;28;19928;-35
2022/12/26 10:15:10;;;;;;;;;;;;;;;16.78;nan;100965.84;5011258;28;19933;-35
2022/12/26 10:17:46;;;;;;;;;;;;;;;16.78;nan;100971.25;5017230;28;20406;-35
2022/12/26 10:20:30;;;;;;;;;;;;;;;16.78;nan;100973.97;5015154;28;19947;-35
2022/12/26 10:22:55;;;;;;;;;;;;;;;16.79;nan;100986.41;5013596;28;20007;-35
2022/12/26 10:25:29;;;;;;;;;;;;;;;16.77;nan;101002.09;5014022;28;19925;-35
2022/12/26 10:27:55;;;;;;;;;;;;;;;16.77;nan;100991.28;5012190;28;19929;-35
2022/12/26 10:30:26;;;;;;;;;;;;;;;16.75;nan;100986.16;5011963;28;20295;-35
2022/12/26 10:32:57;;;;;;;;;;;;;;;16.70;nan;100985.41;5012009;28;19926;-35
2022/12/26 10:35:31;;;;;;;;;;;;;;;16.69;nan;100987.28;5015220;28;19956;-35
2022/12/26 10:38:17;;;;;;;;;;;;;;;16.77;nan;100983.16;5014067;28;19921;-35
2022/12/26 10:40:43;;;;;;;;;;;;;;;16.76;nan;100984.25;5011893;28;20326;-35
2022/12/26 10:43:14;;;;;;;;;;;;;;;16.77;nan;100999.41;5013237;28;19944;-35
2022/12/26 10:45:49;;;;;;;;;;;;;;;16.82;nan;100997.47;5013177;28;20395;-35
2022/12/26 10:48:15;;;;;;;;;;;;;;;16.86;nan;101016.63;5017958;28;19918;-35
2022/12/26 10:50:45;;;;;;;;;;;;;;;16.86;nan;101017.44;5014424;28;19925;-35
2022/12/26 10:53:12;;;;;;;;;;;;;;;16.85;nan;101017.72;5017674;28;19925;-35
2022/12/26 10:55:37;;;;;;;;;;;;;;;16.88;nan;101023.41;5011476;28;20306;-35
2022/12/26 10:58:05;;;;;;;;;;;;;;;16.90;nan;101009.59;5010096;28;19918;-35
2022/12/26 11:00:30;;;;;;;;;;;;;;;16.93;nan;100998.19;5013567;28;20071;-35
2022/12/26 11:03:04;;;;;;;;;;;;;;;16.93;nan;101000.91;5016452;28;20003;-35
2022/12/26 11:05:30;;;;;;;;;;;;;;;16.95;nan;101011.44;5016412;28;19928;-35
2022/12/26 11:08:05;;;;;;;;;;;;;;;16.94;nan;100999.00;5014228;28;19957;-35
2022/12/26 11:10:30;;;;;;;;;;;;;;;16.92;nan;101002.78;5015355;28;20337;-35
2022/12/26 11:12:59;;;;;;;;;;;;;;;16.95;nan;101004.13;5012100;28;19978;-35
2022/12/26 11:15:33;;;;;;;;;;;;;;;16.92;nan;100989.25;5011384;28;19948;-35
2022/12/26 11:18:16;;;;;;;;;;;;;;;16.97;nan;100993.00;5013443;28;20383;-35
2022/12/26 11:20:43;;;;;;;;;;;;;;;16.96;nan;100989.50;5017615;28;19948;-35
2022/12/26 11:23:20;;;;;;;;;;;;;;;16.98;nan;100984.59;5011169;28;20416;-35
2022/12/26 11:25:47;;;;;;;;;;;;;;;16.97;nan;100991.09;5011800;28;19979;-35
2022/12/26 11:28:38;;;;;;;;;;;;;;;16.98;nan;100994.63;5011849;28;19928;-35
2022/12/26 11:31:05;;;;;;;;;;;;;;;17.02;nan;100976.72;5008620;28;20438;-35
2022/12/26 11:33:44;;;;;;;;;;;;;;;17.04;nan;100991.56;5015537;28;20080;-35
2022/12/26 11:36:15;;;;;;;;;;;;;;;17.06;nan;100986.72;5015373;28;20490;-35
2022/12/26 11:38:44;;;;;;;;;;;;;;;17.11;nan;100997.47;5009496;28;19921;-34
2022/12/26 11:41:30;;;;;;;;;;;;;;;17.05;nan;101000.50;5012527;28;20036;-34
2022/12/26 11:44:02;;;;;;;;;;;;;;;16.98;nan;101006.25;5015948;28;19922;-34
2022/12/26 11:46:33;;;;;;;;;;;;;;;17.02;nan;101010.00;5013401;28;19917;-34
2022/12/26 11:48:59;;;;;;;;;;;;;;;17.02;nan;101020.81;5013184;28;19921;-34
2022/12/26 11:51:41;;;;;;;;;;;;;;;17.02;nan;101026.25;5021234;28;19925;-34
2022/12/26 11:54:29;;;;;;;;;;;;;;;17.06;nan;101021.91;5015071;28;19983;-33
2022/12/26 11:57:03;;;;;;;;;;;;;;;17.01;nan;101021.91;5012758;28;19921;-34
2022/12/26 11:59:28;;;;;;;;;;;;;;;17.02;nan;101011.91;5015769;28;19971;-34
2022/12/26 12:02:12;;;;;;;;;;;;;;;17.05;nan;101022.16;5017091;28;20357;-34
2022/12/26 12:04:37;;;;;;;;;;;;;;;16.97;nan;101004.63;5016302;28;19971;-34
2022/12/26 12:07:08;;;;;;;;;;;;;;;16.97;nan;100993.81;5015901;28;19917;-34
2022/12/26 12:09:33;;;;;;;;;;;;;;;17.00;nan;100998.66;5019416;28;19921;-34
2022/12/26 12:12:05;;;;;;;;;;;;;;;16.99;nan;100991.63;5019414;28;20334;-33
2022/12/26 12:14:49;;;;;;;;;;;;;;;16.96;nan;100997.63;5015775;28;20310;-34
2022/12/26 12:17:28;;;;;;;;;;;;;;;16.99;nan;101007.06;5017806;28;20462;-34
2022/12/26 12:20:02;;;;;;;;;;;;;;;16.97;nan;101020.88;5013801;28;20466;-34
2022/12/26 12:22:40;;;;;;;;;;;;;;;16.94;nan;101026.06;5016492;28;20141;-34
2022/12/26 12:25:20;;;;;;;;;;;;;;;16.95;nan;101020.34;5019297;28;19972;-34
2022/12/26 12:27:46;;;;;;;;;;;;;;;16.86;nan;101003.91;5021627;28;19917;-34
2022/12/26 12:30:33;;;;;;;;;;;;;;;16.85;nan;101001.50;5019477;28;20124;-34
2022/12/26 12:33:21;;;;;;;;;;;;;;;16.87;nan;100997.41;5016313;28;19921;-34
2022/12/26 12:36:19;;;;;;;;;;;;;;;16.91;nan;100989.56;5015723;28;20398;-34
2022/12/26 12:38:54;;;;;;;;;;;;;;;16.89;nan;100980.91;4986270;28;20303;-34
2022/12/26 12:41:28;;;;;;;;;;;;;;;16.92;nan;100983.84;5017810;28;19925;-34
2022/12/26 12:44:06;;;;;;;;;;;;;;;16.93;nan;100992.78;5015908;28;19933;-34
2022/12/26 12:46:50;;;;;;;;;;;;;;;16.88;nan;100985.50;5014842;28;19932;-34
2022/12/26 12:49:18;;;;;;;;;;;;;;;16.86;nan;100986.88;5015972;28;19976;-34
2022/12/26 12:52:04;;;;;;;;;;;;;;;16.84;nan;100978.22;5016394;28;19928;-34
2022/12/26 12:54:38;;;;;;;;;;;;;;;16.75;nan;100988.88;5017245;28;20024;-34
2022/12/26 12:57:03;;;;;;;;;;;;;;;16.71;nan;100985.13;5017167;28;19928;-34
2022/12/26 12:59:32;;;;;;;;;;;;;;;16.73;nan;100985.63;5013866;28;19921;-34
2022/12/26 13:02:00;;;;;;;;;;;;;;;16.74;nan;100989.16;5014709;28;19928;-34
2022/12/26 13:04:31;;;;;;;;;;;;;;;16.77;nan;100980.47;5016886;28;19932;-34
2022/12/26 13:07:23;;;;;;;;;;;;;;;16.76;nan;100986.97;5014831;28;19925;-34
2022/12/26 13:09:51;;;;;;;;;;;;;;;16.72;nan;100992.16;5010852;28;19917;-34
2022/12/26 13:12:25;;;;;;;;;;;;;;;16.72;nan;100991.34;5022435;28;19921;-34
2022/12/26 13:14:56;;;;;;;;;;;;;;;16.76;nan;100986.97;5016558;28;19925;-34
2022/12/26 13:17:25;;;;;;;;;;;;;;;16.78;nan;100998.31;5015573;28;19921;-34
2022/12/26 13:19:59;;;;;;;;;;;;;;;16.80;nan;100988.00;5014998;28;19925;-34
2022/12/26 13:24:22;;;;;;;;;;;;;;;16.84;nan;101002.59;5017548;28;20367;-34
2022/12/26 13:25:17;;;;;;;;;;;;;;;16.89;nan;100989.03;5017614;28;19921;-34
2022/12/26 13:27:43;;;;;;;;;;;;;;;16.88;nan;101004.47;5013649;28;19960;-34
2022/12/26 13:30:11;;;;;;;;;;;;;;;16.96;nan;101002.22;5014231;28;19982;-34
2022/12/26 13:32:37;;;;;;;;;;;;;;;16.91;nan;101001.19;5016982;28;19921;-34
2022/12/26 13:35:03;;;;;;;;;;;;;;;16.89;nan;101005.25;5017085;28;19928;-34
2022/12/26 13:37:31;;;;;;;;;;;;;;;16.94;nan;100997.09;5015628;28;20287;-34
2022/12/26 13:39:59;;;;;;;;;;;;;;;17.13;nan;100997.19;5015678;28;19975;-34
2022/12/26 13:45:35;;;;;;;;;;;;;;;17.70;nan;100990.91;5016397;28;19975;-34
2022/12/26 13:48:01;;;;;;;;;;;;;;;17.96;nan;100987.88;5015734;28;19922;-34
2022/12/26 13:50:45;;;;;;;;;;;;;;;18.23;nan;101003.50;5015700;28;20387;-34
2022/12/26 13:53:31;;;;;;;;;;;;;;;18.43;nan;100998.59;5016830;28;20404;-34
2022/12/26 13:55:58;;;;;;;;;;;;;;;18.41;nan;101003.50;5010989;28;19921;-34
2022/12/26 13:58:26;;;;;;;;;;;;;;;18.22;nan;101008.13;5013954;28;19998;-34
2022/12/26 14:00:53;;;;;;;;;;;;;;;18.04;nan;100990.75;5012702;28;19975;-34
2022/12/26 14:03:25;;;;;;;;;;;;;;;18.22;nan;101008.13;5012942;28;20325;-34
2022/12/26 14:06:05;;;;;;;;;;;;;;;18.36;nan;101010.91;5016370;28;21356;-34
2022/12/26 14:08:36;;;;;;;;;;;;;;;18.28;nan;101006.94;5020738;28;19932;-34
2022/12/26 14:11:20;;;;;;;;;;;;;;;18.09;nan;101004.22;5018290;28;19972;-34
2022/12/26 14:13:57;;;;;;;;;;;;;;;17.87;nan;101016.72;5012871;28;20004;-34
2022/12/26 14:16:29;;;;;;;;;;;;;;;17.69;nan;101021.81;5014133;28;19979;-34
2022/12/26 14:19:01;;;;;;;;;;;;;;;17.54;nan;101019.25;5011435;28;20472;-34
2022/12/26 14:21:27;;;;;;;;;;;;;;;17.42;nan;101024.25;5020389;28;19921;-34
2022/12/26 14:24:07;;;;;;;;;;;;;;;17.33;nan;101031.38;5017848;28;20473;-34
2022/12/26 14:26:51;;;;;;;;;;;;;;;17.27;nan;101032.53;5015678;28;19933;-34
2022/12/26 14:29:37;;;;;;;;;;;;;;;17.23;nan;101037.69;5015172;28;19940;-34
2022/12/26 14:32:20;;;;;;;;;;;;;;;17.19;nan;101039.38;4991013;28;19917;-34
2022/12/26 14:34:48;;;;;;;;;;;;;;;17.07;nan;101042.47;5017509;28;19923;-34
2022/12/26 14:37:32;;;;;;;;;;;;;;;17.05;nan;101041.09;5016495;28;19917;-34
2022/12/26 14:40:06;;;;;;;;;;;;;;;16.99;nan;101039.53;5020220;28;19960;-34
2022/12/26 14:43:13;;;;;;;;;;;;;;;16.94;nan;101037.69;5015837;28;19925;-34
2022/12/26 14:45:40;;;;;;;;;;;;;;;16.87;nan;101042.59;5018225;28;20013;-34
2022/12/26 14:48:14;;;;;;;;;;;;;;;16.85;nan;101042.88;5018537;28;19923;-34
2022/12/26 14:50:42;;;;;;;;;;;;;;;16.85;nan;101039.38;5014189;28;19926;-34
2022/12/26 14:53:26;;;;;;;;;;;;;;;16.79;nan;101037.81;5015465;28;19935;-34
2022/12/26 14:56:06;;;;;;;;;;;;;;;16.75;nan;101042.97;5016962;28;19917;-34
2022/12/26 14:58:35;;;;;;;;;;;;;;;16.69;nan;101043.28;5022419;28;19917;-33
2022/12/26 15:01:11;;;;;;;;;;;;;;;16.69;nan;101030.56;5013427;28;19951;-34
2022/12/26 15:03:55;;;;;;;;;;;;;;;16.66;nan;101027.59;5010183;28;19928;-34
2022/12/26 15:06:21;;;;;;;;;;;;;;;16.60;nan;101033.03;5011474;28;19940;-34
2022/12/26 15:08:55;;;;;;;;;;;;;;;16.56;nan;101023.88;5009591;28;19921;-34
2022/12/26 15:11:39;;;;;;;;;;;;;;;16.57;nan;101033.59;5009572;28;19925;-34
2022/12/26 15:14:23;;;;;;;;;;;;;;;16.57;nan;101030.09;5011751;28;19921;-34
2022/12/26 15:16:48;;;;;;;;;;;;;;;16.50;nan;101022.28;5012798;28;20344;-34